Time;durP1;ratioP1;P1;durP2;ratioP2;P2;SDS_P1;SDS_P2;PMS_P1;PMS_P2;Temp;Humidity;BMP_temperature;BMP_pressure;BME280_temperature;BME280_humidity;BME280_pressure;Samples;Min_cycle;Max_cycle;Signal;HPM_P1;HPM_P2
2021/09/10 00:01:38;;;;;;;5.35;3.50;;;;;;;17.87;60.75;99819.84;10463913;28;20045;-75
2021/09/10 00:06:40;;;;;;;4.20;3.63;;;;;;;17.80;60.85;99826.53;10463142;28;20076;-76
2021/09/10 00:11:42;;;;;;;4.47;3.47;;;;;;;17.86;60.10;99820.81;10462367;28;20048;-76
2021/09/10 00:16:43;;;;;;;3.47;3.05;;;;;;;17.76;60.57;99822.38;10462819;28;20055;-76
2021/09/10 00:21:45;;;;;;;3.42;3.13;;;;;;;17.69;60.88;99826.34;10462543;28;20041;-75
2021/09/10 00:26:47;;;;;;;4.20;2.85;;;;;;;17.77;60.57;99832.06;10463065;28;20052;-75
2021/09/10 00:31:49;;;;;;;5.70;2.95;;;;;;;17.70;60.34;99833.34;10462344;28;20048;-76
2021/09/10 00:36:50;;;;;;;3.40;3.03;;;;;;;17.44;60.89;99828.84;10461709;28;20079;-77
2021/09/10 00:41:52;;;;;;;4.32;2.97;;;;;;;17.40;61.21;99823.75;10460918;28;20041;-76
2021/09/10 00:46:54;;;;;;;3.92;3.55;;;;;;;17.30;61.26;99827.91;10460502;28;20048;-76
2021/09/10 00:51:57;;;;;;;5.55;3.20;;;;;;;17.49;60.15;99826.78;10461749;28;20065;-74
2021/09/10 00:56:59;;;;;;;4.82;2.92;;;;;;;17.23;61.04;99829.25;10460664;28;20049;-76
2021/09/10 01:02:05;;;;;;;3.80;2.92;;;;;;;17.19;61.36;99834.88;10461031;28;20367;-76
2021/09/10 01:07:07;;;;;;;4.60;3.15;;;;;;;17.20;60.66;99836.56;10461571;28;20433;-76
2021/09/10 01:12:09;;;;;;;3.80;3.13;;;;;;;17.31;60.27;99828.75;10460578;28;20041;-76
2021/09/10 01:17:11;;;;;;;3.80;3.03;;;;;;;17.07;60.99;99837.31;10460249;28;20499;-75
2021/09/10 01:22:13;;;;;;;4.43;3.60;;;;;;;17.25;59.89;99839.78;10459912;28;20521;-76
2021/09/10 01:27:14;;;;;;;5.47;2.90;;;;;;;17.22;59.71;99834.66;10458454;28;20053;-76
2021/09/10 01:32:16;;;;;;;5.18;3.03;;;;;;;17.17;60.17;99844.72;10459810;28;20048;-76
2021/09/10 01:37:18;;;;;;;3.85;2.50;;;;;;;16.90;60.58;99838.34;10460381;28;20102;-77
2021/09/10 01:42:19;;;;;;;3.90;2.40;;;;;;;17.08;59.59;99832.84;10458246;28;20055;-76
2021/09/10 01:47:21;;;;;;;4.22;2.70;;;;;;;16.91;60.41;99833.91;10459894;28;20494;-76
2021/09/10 01:52:23;;;;;;;3.33;3.03;;;;;;;17.00;59.22;99838.66;10442229;28;20498;-76
2021/09/10 01:57:24;;;;;;;6.63;2.40;;;;;;;16.96;59.17;99845.09;10459072;28;20414;-76
2021/09/10 02:02:26;;;;;;;4.75;2.72;;;;;;;16.91;59.66;99836.56;10458377;28;20041;-76
2021/09/10 02:07:28;;;;;;;5.78;3.25;;;;;;;16.71;60.04;99839.53;10457987;28;20056;-75
2021/09/10 02:12:29;;;;;;;3.22;2.30;;;;;;;16.92;59.26;99837.44;10458351;28;20056;-75
2021/09/10 02:17:31;;;;;;;3.25;2.53;;;;;;;16.62;60.29;99840.94;10458377;28;20049;-75
2021/09/10 02:22:32;;;;;;;3.10;2.33;;;;;;;16.82;59.16;99837.09;10457809;28;20037;-76
2021/09/10 02:27:34;;;;;;;3.47;2.40;;;;;;;16.64;58.94;99845.22;10457655;28;20053;-76
2021/09/10 02:32:36;;;;;;;6.82;2.70;;;;;;;16.70;58.65;99838.69;10457393;28;20048;-75
2021/09/10 02:37:38;;;;;;;4.93;2.55;;;;;;;16.75;58.62;99841.94;10458045;28;20106;-75
2021/09/10 02:42:39;;;;;;;5.20;2.53;;;;;;;16.69;58.74;99842.28;10456457;28;20041;-76
2021/09/10 02:47:43;;;;;;;2.63;2.13;;;;;;;16.52;59.25;99843.28;10458087;28;20045;-76
2021/09/10 02:52:45;;;;;;;2.85;2.10;;;;;;;16.71;58.54;99850.16;10457331;28;20041;-76
2021/09/10 02:57:46;;;;;;;6.35;2.28;;;;;;;16.60;58.83;99848.13;10457206;28;20048;-76
2021/09/10 03:02:56;;;;;;;3.13;2.28;;;;;;;16.57;58.75;99854.47;10457382;28;20033;-75
2021/09/10 03:07:58;;;;;;;2.47;2.15;;;;;;;16.45;58.78;99855.19;10457349;28;20049;-75
2021/09/10 03:12:59;;;;;;;5.80;2.38;;;;;;;16.72;57.82;99847.44;10457891;28;20045;-76
2021/09/10 03:18:01;;;;;;;3.17;2.83;;;;;;;16.68;57.65;99850.31;10458921;28;20049;-75
2021/09/10 03:23:03;;;;;;;4.60;2.67;;;;;;;16.67;57.68;99840.66;10464194;28;20071;-75
2021/09/10 03:28:04;;;;;;;3.45;2.38;;;;;;;16.52;58.61;99847.75;10465082;28;20060;-76
2021/09/10 03:33:06;;;;;;;2.92;2.20;;;;;;;16.52;57.68;99850.41;10464738;28;20049;-76
2021/09/10 03:38:08;;;;;;;6.30;2.22;;;;;;;16.39;58.38;99850.28;10465472;28;20060;-75
2021/09/10 03:43:09;;;;;;;6.72;2.50;;;;;;;16.31;58.63;99842.75;10462908;28;20049;-75
2021/09/10 03:48:11;;;;;;;3.92;2.00;;;;;;;16.03;59.78;99850.59;10464580;28;20041;-76
2021/09/10 03:53:12;;;;;;;3.00;2.28;;;;;;;15.95;59.71;99847.53;10464397;28;20041;-75
2021/09/10 03:58:15;;;;;;;5.15;2.42;;;;;;;15.89;60.28;99846.06;10463897;28;20475;-75
2021/09/10 04:03:16;;;;;;;3.10;2.28;;;;;;;16.18;58.28;99835.59;10463698;28;20049;-75
2021/09/10 04:08:18;;;;;;;3.10;1.90;;;;;;;16.49;57.18;99832.00;10464889;28;20051;-76
2021/09/10 04:13:21;;;;;;;5.57;2.55;;;;;;;16.32;58.01;99833.00;10463426;28;20499;-75
2021/09/10 04:18:22;;;;;;;3.70;2.22;;;;;;;16.32;57.91;99833.00;10461441;28;20094;-75
2021/09/10 04:23:24;;;;;;;3.65;2.22;;;;;;;16.18;58.33;99832.94;10462813;28;20202;-76
2021/09/10 04:28:25;;;;;;;3.50;2.38;;;;;;;16.11;59.11;99846.56;10461542;28;20088;-75
2021/09/10 04:33:27;;;;;;;3.97;2.33;;;;;;;16.10;59.20;99851.94;10461909;28;20133;-75
2021/09/10 04:38:29;;;;;;;5.15;2.30;;;;;;;16.23;58.21;99852.09;10462102;28;20041;-76
2021/09/10 04:43:31;;;;;;;2.95;2.38;;;;;;;16.07;58.92;99860.94;10461906;28;20098;-77
2021/09/10 04:48:33;;;;;;;11.52;2.83;;;;;;;16.17;58.83;99860.41;10461418;28;20041;-76
2021/09/10 04:53:36;;;;;;;2.95;2.17;;;;;;;15.84;60.38;99859.56;10461598;28;20045;-76
2021/09/10 04:58:38;;;;;;;3.03;2.53;;;;;;;15.88;60.68;99850.50;10461518;28;20044;-76
2021/09/10 05:03:40;;;;;;;5.35;2.75;;;;;;;16.33;59.58;99855.91;10462645;28;20124;-76
2021/09/10 05:08:42;;;;;;;5.78;2.40;;;;;;;16.24;59.98;99857.31;10462227;28;20045;-75
2021/09/10 05:13:43;;;;;;;4.10;2.70;;;;;;;16.06;60.45;99864.53;10459516;28;20048;-76
2021/09/10 05:18:45;;;;;;;4.22;2.40;;;;;;;16.19;59.33;99866.47;10461661;28;20041;-75
2021/09/10 05:23:47;;;;;;;2.60;2.38;;;;;;;16.20;59.62;99871.69;10461719;28;20351;-75
2021/09/10 05:28:48;;;;;;;4.95;2.25;;;;;;;16.23;58.38;99887.44;10462205;28;20409;-76
2021/09/10 05:33:50;;;;;;;8.20;2.95;;;;;;;16.41;57.65;99885.50;10462510;28;20506;-75
2021/09/10 05:38:52;;;;;;;3.80;2.20;;;;;;;16.33;58.88;99896.56;10461904;28;20052;-75
2021/09/10 05:43:53;;;;;;;9.18;2.80;;;;;;;16.44;58.69;99889.78;10461223;28;20068;-75
2021/09/10 05:48:55;;;;;;;9.82;2.85;;;;;;;16.43;59.08;99888.09;10460467;28;20053;-75
2021/09/10 05:53:57;;;;;;;6.22;3.03;;;;;;;16.55;59.76;99890.84;10460395;28;20045;-74
2021/09/10 05:58:59;;;;;;;5.85;3.08;;;;;;;17.16;57.33;99894.34;10460844;22;20042;-71
2021/09/10 06:04:00;;;;;;;4.50;2.45;;;;;;;18.07;55.52;99898.34;10415527;28;20038;-69
2021/09/10 06:09:02;;;;;;;4.32;2.17;;;;;;;18.46;54.38;99903.81;10416560;28;20045;-70
2021/09/10 06:14:04;;;;;;;4.53;2.85;;;;;;;18.24;55.53;99915.88;10416212;28;20422;-70
2021/09/10 06:19:05;;;;;;;3.67;2.00;;;;;;;18.22;55.45;99915.13;10414941;28;20054;-70
2021/09/10 06:24:07;;;;;;;3.78;2.78;;;;;;;18.41;56.04;99920.94;10416994;28;20045;-70
2021/09/10 06:29:08;;;;;;;4.78;2.53;;;;;;;18.66;54.88;99922.81;10416635;28;20049;-70
2021/09/10 06:34:11;;;;;;;5.20;2.67;;;;;;;18.57;56.93;99914.59;10415905;28;20041;-70
2021/09/10 06:39:13;;;;;;;8.13;2.83;;;;;;;18.72;55.10;99915.41;10418362;28;20060;-70
2021/09/10 06:44:15;;;;;;;6.07;2.97;;;;;;;18.72;55.37;99926.06;10414894;28;20057;-71
2021/09/10 06:49:16;;;;;;;5.95;2.67;;;;;;;18.82;55.25;99932.50;10417225;28;20046;-71
2021/09/10 06:54:18;;;;;;;3.97;2.58;;;;;;;18.94;55.08;99920.97;10450081;28;20103;-71
2021/09/10 06:59:19;;;;;;;2.88;2.47;;;;;;;18.96;54.97;99924.41;10465632;28;20576;-70
2021/09/10 07:04:21;;;;;;;4.57;2.42;;;;;;;19.05;54.81;99931.78;10465919;28;20040;-70
2021/09/10 07:09:22;;;;;;;4.57;2.95;;;;;;;19.50;54.37;99932.19;10466081;28;20401;-70
2021/09/10 07:14:24;;;;;;;4.07;2.55;;;;;;;19.44;54.56;99926.47;10464844;28;20102;-70
2021/09/10 07:19:26;;;;;;;4.40;2.75;;;;;;;19.53;54.63;99940.00;10466405;28;20525;-69
2021/09/10 07:24:27;;;;;;;5.30;2.80;;;;;;;19.92;53.26;99940.78;10465542;28;20094;-70
2021/09/10 07:29:29;;;;;;;3.58;2.50;;;;;;;20.08;53.59;99929.88;10464298;28;20102;-70
2021/09/10 07:34:30;;;;;;;3.35;2.15;;;;;;;20.11;53.67;99937.66;10463453;28;20041;-70
2021/09/10 07:39:32;;;;;;;4.53;2.30;;;;;;;20.34;53.45;99935.97;10463567;28;20106;-71
2021/09/10 07:44:34;;;;;;;4.13;2.17;;;;;;;20.16;53.58;99943.50;10465034;28;20044;-70
2021/09/10 07:49:36;;;;;;;4.35;2.78;;;;;;;20.69;51.35;99930.69;10463447;28;20048;-71
2021/09/10 07:54:37;;;;;;;3.58;2.30;;;;;;;20.86;51.96;99942.78;10461143;28;20094;-69
2021/09/10 07:59:55;;;;;;;5.90;2.67;;;;;;;21.21;51.91;99948.09;10461732;28;20063;-70
2021/09/10 08:04:57;;;;;;;5.07;2.17;;;;;;;21.16;51.33;99944.91;10464466;28;20037;-68
2021/09/10 08:09:59;;;;;;;4.18;2.22;;;;;;;21.63;51.92;99946.59;10463154;28;20421;-69
2021/09/10 08:15:01;;;;;;;8.05;2.20;;;;;;;21.75;50.39;99952.78;10461511;28;20072;-70
2021/09/10 08:20:05;;;;;;;6.78;1.80;;;;;;;22.01;49.11;99958.75;10463402;28;20063;-70
2021/09/10 08:25:08;;;;;;;8.32;2.35;;;;;;;22.30;48.29;99960.91;10462716;28;20044;-71
2021/09/10 08:30:10;;;;;;;5.70;2.25;;;;;;;22.21;49.78;99950.94;10462173;28;20048;-70
2021/09/10 08:35:12;;;;;;;3.38;2.42;;;;;;;22.66;49.76;99963.22;10446705;28;20049;-71
2021/09/10 08:40:14;;;;;;;7.80;2.22;;;;;;;22.73;50.31;99960.88;10462897;28;20037;-71
2021/09/10 08:45:18;;;;;;;6.80;3.05;;;;;;;22.86;49.10;99960.72;10460553;28;20068;-70
2021/09/10 08:50:21;;;;;;;2.80;2.17;;;;;;;23.06;50.00;99962.56;10462991;28;20041;-70
2021/09/10 08:55:23;;;;;;;6.15;2.65;;;;;;;23.06;47.65;99957.22;10460622;28;20075;-70
2021/09/10 09:00:31;;;;;;;4.20;2.35;;;;;;;22.83;49.02;99963.66;10459392;28;20517;-70
2021/09/10 09:05:34;;;;;;;4.75;2.47;;;;;;;22.91;47.88;99958.53;10461342;28;20060;-70
2021/09/10 09:10:58;;;;;;;6.82;1.98;;;;;;;23.34;48.04;99966.44;10462375;28;20045;-70
2021/09/10 09:16:28;;;;;;;5.57;2.45;;;;;;;23.63;46.60;99955.84;10459606;28;20075;-70
2021/09/10 09:21:32;;;;;;;8.00;2.38;;;;;;;24.46;45.94;99953.91;10461153;28;20132;-70
2021/09/10 09:26:34;;;;;;;8.82;2.58;;;;;;;25.12;44.99;99950.53;10459896;28;20047;-71
2021/09/10 09:31:37;;;;;;;6.05;2.13;;;;;;;25.38;46.43;99945.38;10442580;28;20049;-70
2021/09/10 09:36:55;;;;;;;5.90;2.60;;;;;;;26.07;45.00;99941.44;10459100;28;20049;-71
2021/09/10 09:42:08;;;;;;;9.40;2.55;;;;;;;26.62;43.59;99931.44;10459161;28;20045;-71
2021/09/10 09:47:09;;;;;;;6.13;2.38;;;;;;;27.33;43.38;99926.97;10458075;28;20052;-69
2021/09/10 09:52:11;;;;;;;3.25;2.42;;;;;;;28.01;42.81;99929.69;10460910;28;20041;-70
2021/09/10 09:57:13;;;;;;;8.13;2.80;;;;;;;28.52;41.89;99927.84;10459366;28;20053;-70
2021/09/10 10:02:14;;;;;;;4.32;2.47;;;;;;;28.75;41.74;99929.88;10458879;28;20037;-71
2021/09/10 10:07:18;;;;;;;18.23;4.03;;;;;;;28.79;42.34;99923.97;10459974;28;20048;-71
2021/09/10 10:12:23;;;;;;;11.35;3.15;;;;;;;29.25;42.17;99923.44;10457644;28;20048;-69
2021/09/10 10:17:30;;;;;;;7.18;3.17;;;;;;;29.58;41.25;99927.81;10459374;28;20453;-70
2021/09/10 10:22:37;;;;;;;7.30;3.42;;;;;;;29.78;41.66;99917.38;10456955;28;20044;-70
2021/09/10 10:27:43;;;;;;;112.32;9.65;;;;;;;29.61;43.58;99919.31;10457295;28;20063;-71
2021/09/10 10:32:49;;;;;;;5.22;3.28;;;;;;;28.84;42.51;99909.94;10457009;28;20045;-69
2021/09/10 10:38:03;;;;;;;6.75;3.28;;;;;;;29.29;43.52;99911.25;10458475;28;20044;-70
2021/09/10 10:43:09;;;;;;;18.67;3.63;;;;;;;30.17;45.20;99913.84;10457636;28;20191;-70
2021/09/10 10:48:29;;;;;;;24.42;3.95;;;;;;;29.83;42.44;99917.69;10457612;28;20052;-70
2021/09/10 10:53:43;;;;;;;9.70;3.20;;;;;;;29.20;44.63;99907.72;10457821;28;20111;-70
2021/09/10 10:58:44;;;;;;;10.82;3.28;;;;;;;29.09;43.75;99919.75;10458924;28;20413;-70
2021/09/10 11:03:50;;;;;;;4.13;3.05;;;;;;;28.10;45.12;99907.09;10456964;28;20048;-70
2021/09/10 11:08:53;;;;;;;4.68;2.90;;;;;;;27.62;46.57;99896.91;10456844;28;20045;-70
2021/09/10 11:13:55;;;;;;;5.43;2.85;;;;;;;28.15;45.43;99888.50;10457784;28;20041;-70
2021/09/10 11:18:56;;;;;;;6.25;2.95;;;;;;;28.02;45.89;99887.31;10456649;28;20055;-69
2021/09/10 11:24:07;;;;;;;13.40;3.28;;;;;;;27.59;47.30;99892.69;10457342;28;20467;-69
2021/09/10 11:29:09;;;;;;;45.58;6.05;;;;;;;27.60;47.35;99905.19;10456965;28;20041;-70
2021/09/10 11:34:32;;;;;;;2.75;2.55;;;;;;;26.80;49.78;99900.94;10454806;28;20041;-70
2021/09/10 11:39:42;;;;;;;7.63;3.58;;;;;;;26.50;50.53;99905.72;10461066;28;20045;-69
2021/09/10 11:45:07;;;;;;;3.13;2.58;;;;;;;26.36;50.27;99904.38;10464872;28;20044;-70
2021/09/10 11:50:11;;;;;;;6.00;2.67;;;;;;;26.56;50.27;99893.47;10463712;28;20123;-69
2021/09/10 11:55:17;;;;;;;6.22;2.60;;;;;;;26.55;50.83;99895.31;10463856;28;20073;-70
2021/09/10 12:00:25;;;;;;;3.92;2.80;;;;;;;27.00;49.10;99882.69;10465222;22;20084;-77
2021/09/10 12:05:28;;;;;;;6.18;3.15;;;;;;;26.95;50.88;99882.31;10429201;28;20041;-77
2021/09/10 12:10:35;;;;;;;5.30;3.63;;;;;;;27.06;51.03;99882.06;10427425;28;20052;-78
2021/09/10 12:15:39;;;;;;;10.02;3.63;;;;;;;27.19;51.96;99882.53;10428222;28;20095;-78
2021/09/10 12:20:43;;;;;;;26.23;3.90;;;;;;;27.77;49.58;99873.72;10429131;28;20053;-78
2021/09/10 12:25:57;;;;;;;10.65;2.88;;;;;;;28.23;49.38;99867.94;10432373;28;20045;-79
2021/09/10 12:31:08;;;;;;;5.80;2.85;;;;;;;28.38;48.81;99866.31;10427932;28;20041;-75
2021/09/10 12:36:11;;;;;;;3.97;2.67;;;;;;;28.15;49.54;99869.59;10427905;28;20509;-75
2021/09/10 12:41:15;;;;;;;3.13;2.92;;;;;;;28.28;48.47;99857.47;10427426;28;20042;-75
2021/09/10 12:46:17;;;;;;;3.55;2.85;;;;;;;27.93;50.93;99854.00;10427666;28;20124;-75
2021/09/10 12:51:19;;;;;;;6.00;3.45;;;;;;;27.53;50.69;99857.38;10427248;28;20065;-75
2021/09/10 12:56:26;;;;;;;4.55;3.10;;;;;;;27.47;49.50;99849.94;10429715;28;20039;-80
2021/09/10 13:01:28;;;;;;;4.75;3.63;;;;;;;27.12;51.03;99847.22;10441964;28;20041;-79
2021/09/10 13:06:31;;;;;;;5.88;2.92;;;;;;;26.98;51.64;99847.78;10442020;28;20038;-80
2021/09/10 13:11:36;;;;;;;4.00;2.83;;;;;;;26.92;51.30;99846.59;10443329;28;20037;-80
2021/09/10 13:16:38;;;;;;;3.08;2.20;;;;;;;26.87;51.40;99845.34;10437145;28;20040;-79
2021/09/10 13:21:41;;;;;;;4.60;2.58;;;;;;;26.97;50.60;99842.56;10435591;28;20045;-79
2021/09/10 13:26:49;;;;;;;3.60;3.17;;;;;;;26.86;51.38;99831.00;10436350;28;20042;-80
2021/09/10 13:31:52;;;;;;;3.25;2.95;;;;;;;26.84;50.27;99824.94;10432624;28;20053;-80
2021/09/10 13:36:54;;;;;;;3.08;2.83;;;;;;;26.74;51.14;99818.81;10431725;28;20116;-81
2021/09/10 13:41:58;;;;;;;4.22;3.47;;;;;;;26.46;51.83;99823.47;10434069;28;20049;-79
2021/09/10 13:46:59;;;;;;;3.78;2.90;;;;;;;26.47;51.91;99818.94;10432448;28;20059;-78
2021/09/10 13:52:02;;;;;;;4.40;3.33;;;;;;;26.19;51.95;99823.53;10434166;28;20105;-79
2021/09/10 13:57:06;;;;;;;3.40;2.83;;;;;;;25.93;54.14;99840.44;10430832;28;20044;-78
2021/09/10 14:02:08;;;;;;;4.97;3.15;;;;;;;25.35;55.20;99852.34;10436481;28;20041;-80
2021/09/10 14:07:23;;;;;;;;;;;;;;;25.14;55.95;99852.56;10434634;28;20049;-76
2021/09/10 14:12:26;;;;;;;5.30;3.80;;;;;;;25.26;57.03;99855.06;10426582;28;19928;-76
2021/09/10 14:17:28;;;;;;;4.63;3.08;;;;;;;25.37;56.67;99854.91;10420808;28;20053;-78
2021/09/10 14:22:30;;;;;;;5.10;3.50;;;;;;;25.45;59.61;99855.00;10422583;28;20065;-78
2021/09/10 14:27:32;;;;;;;10.75;4.05;;;;;;;25.70;57.64;99841.84;10419797;28;20072;-80
2021/09/10 14:32:33;;;;;;;6.22;3.50;;;;;;;25.55;57.90;99858.50;10420529;28;20425;-78
2021/09/10 14:37:35;;;;;;;4.85;3.85;;;;;;;25.46;58.76;99867.47;10419419;28;20132;-77
2021/09/10 14:42:37;;;;;;;124.60;36.85;;;;;;;25.13;60.56;99847.34;10422117;28;20044;-79
2021/09/10 14:47:39;;;;;;;5.57;3.50;;;;;;;24.94;60.72;99850.91;10427505;28;20037;-78
2021/09/10 14:52:44;;;;;;;5.73;4.63;;;;;;;25.12;60.85;99859.09;10426289;28;20048;-76
2021/09/10 14:57:46;;;;;;;6.85;4.68;;;;;;;24.98;60.67;99852.31;10420622;28;20284;-77
2021/09/10 15:03:10;;;;;;;21.67;6.53;;;;;;;25.26;58.64;99845.16;10424801;28;20034;-75
2021/09/10 15:08:12;;;;;;;12.15;4.35;;;;;;;25.33;57.90;99851.66;10423173;28;20387;-76
2021/09/10 15:13:15;;;;;;;3.60;3.03;;;;;;;25.16;55.34;99852.44;10424546;28;20045;-75
2021/09/10 15:18:16;;;;;;;5.15;4.25;;;;;;;24.96;55.94;99853.44;10430742;28;20046;-76
2021/09/10 15:23:21;;;;;;;7.70;5.47;;;;;;;24.59;56.81;99864.97;10432887;28;20048;-75
2021/09/10 15:28:23;;;;;;;15.10;6.57;;;;;;;24.24;64.63;99871.72;10430962;28;20057;-73
2021/09/10 15:33:25;;;;;;;10.60;6.07;;;;;;;23.42;71.68;99904.94;10456659;28;20037;-74
2021/09/10 15:38:30;;;;;;;4.82;4.25;;;;;;;22.62;72.57;99907.34;10465857;28;20072;-75
2021/09/10 15:43:31;;;;;;;9.80;3.63;;;;;;;22.79;69.51;99897.88;10465789;28;20044;-76
2021/09/10 15:48:34;;;;;;;5.18;4.68;;;;;;;22.42;76.31;99898.31;10466054;28;20104;-76
2021/09/10 15:53:36;;;;;;;4.63;4.22;;;;;;;22.38;75.56;99897.69;10465877;28;20041;-72
2021/09/10 15:58:37;;;;;;;5.00;3.55;;;;;;;22.38;72.17;99908.41;10467000;28;20068;-74
2021/09/10 16:03:40;;;;;;;4.80;3.40;;;;;;;22.09;74.14;99900.09;10470209;28;20146;-73
2021/09/10 16:08:42;;;;;;;6.57;3.80;;;;;;;21.82;76.32;99884.41;10471057;28;20128;-72
2021/09/10 16:13:44;;;;;;;3.80;3.50;;;;;;;21.73;76.15;99890.53;10466467;28;20170;-72
2021/09/10 16:18:45;;;;;;;3.63;3.22;;;;;;;21.58;79.24;99881.91;10463538;28;20506;-74
2021/09/10 16:23:47;;;;;;;3.83;3.50;;;;;;;21.55;78.18;99881.28;10463719;28;20045;-74
2021/09/10 16:28:49;;;;;;;2.80;2.60;;;;;;;21.63;76.82;99876.19;10463508;28;20048;-74
2021/09/10 16:33:55;;;;;;;5.78;3.72;;;;;;;21.69;75.79;99874.84;10465565;28;20041;-74
2021/09/10 16:39:03;;;;;;;4.05;3.65;;;;;;;21.50;78.03;99879.00;10465361;28;20045;-74
2021/09/10 16:44:07;;;;;;;5.10;4.70;;;;;;;21.41;78.44;99880.56;10464963;28;20056;-74
2021/09/10 16:49:09;;;;;;;4.60;3.85;;;;;;;21.44;78.73;99879.50;10472416;28;20060;-73
2021/09/10 16:54:14;;;;;;;5.85;4.10;;;;;;;21.38;81.14;99878.16;10473933;28;20060;-74
2021/09/10 16:59:16;;;;;;;3.45;3.15;;;;;;;21.45;78.13;99883.84;10474299;28;20045;-73
2021/09/10 17:04:18;;;;;;;4.43;3.83;;;;;;;21.44;80.38;99890.19;10479062;28;20069;-75
2021/09/10 17:09:24;;;;;;;5.70;5.20;;;;;;;21.31;82.03;99889.41;10479110;28;20055;-75
2021/09/10 17:14:26;;;;;;;4.70;4.38;;;;;;;21.17;81.40;99887.84;10475846;28;20053;-73
2021/09/10 17:19:29;;;;;;;5.38;4.88;;;;;;;21.21;80.47;99901.81;10470702;28;20044;-74
2021/09/10 17:24:31;;;;;;;8.23;5.80;;;;;;;21.30;83.50;99901.09;10473330;28;20406;-74
2021/09/10 17:29:33;;;;;;;7.03;6.43;;;;;;;20.99;85.85;99898.13;10471689;28;20040;-74
2021/09/10 17:34:36;;;;;;;7.32;6.72;;;;;;;20.98;85.40;99891.06;10472963;28;20072;-75
2021/09/10 17:39:38;;;;;;;9.13;7.22;;;;;;;21.03;85.92;99893.38;10472684;28;20040;-74
2021/09/10 17:44:43;;;;;;;8.80;8.10;;;;;;;20.82;87.30;99887.88;10472194;28;20087;-73
2021/09/10 17:49:45;;;;;;;9.73;8.48;;;;;;;20.58;87.83;99891.44;10473323;28;20060;-73
2021/09/10 17:54:47;;;;;;;10.82;9.75;;;;;;;20.51;88.72;99894.72;10470566;28;20499;-73
2021/09/10 17:59:50;;;;;;;9.85;9.07;;;;;;;20.65;88.61;99902.53;10471887;28;20061;-72
2021/09/10 18:04:52;;;;;;;9.63;8.82;;;;;;;20.46;89.48;99921.72;10473782;28;20041;-72
2021/09/10 18:09:55;;;;;;;10.80;9.73;;;;;;;20.37;90.22;99901.91;10468597;28;20041;-72
2021/09/10 18:14:56;;;;;;;10.68;9.88;;;;;;;20.29;90.97;99909.63;10469601;28;20048;-72
2021/09/10 18:20:00;;;;;;;10.25;9.30;;;;;;;20.30;90.82;99913.97;10469493;28;20457;-72
2021/09/10 18:25:03;;;;;;;9.90;9.10;;;;;;;20.31;90.36;99926.34;10471170;28;20105;-72
2021/09/10 18:30:05;;;;;;;9.32;8.73;;;;;;;20.30;90.09;99924.66;10470830;28;20052;-72
2021/09/10 18:35:08;;;;;;;9.48;8.77;;;;;;;20.25;90.02;99926.81;10459513;28;20049;-72
2021/09/10 18:40:11;;;;;;;7.75;7.32;;;;;;;20.26;90.16;99925.00;10443490;28;20050;-72
2021/09/10 18:45:13;;;;;;;12.20;10.30;;;;;;;20.25;90.14;99925.97;10460453;28;20095;-71
2021/09/10 18:50:14;;;;;;;9.35;8.55;;;;;;;20.08;91.13;99930.72;10460990;28;20091;-73
2021/09/10 18:55:17;;;;;;;9.43;8.80;;;;;;;20.00;91.83;99929.56;10460262;28;20045;-72
2021/09/10 19:00:19;;;;;;;9.23;8.63;;;;;;;19.85;92.77;99935.06;10459825;28;20491;-73
2021/09/10 19:05:20;;;;;;;11.40;10.57;;;;;;;20.04;90.54;99937.25;10459587;28;20041;-72
2021/09/10 19:10:24;;;;;;;11.25;10.35;;;;;;;20.12;91.98;99937.53;10458524;28;20116;-72
2021/09/10 19:15:26;;;;;;;11.50;10.68;;;;;;;19.81;92.97;99938.06;10461005;28;20068;-72
2021/09/10 19:20:28;;;;;;;12.23;11.38;;;;;;;19.65;93.53;99939.13;10461324;28;20041;-73
2021/09/10 19:25:29;;;;;;;12.77;11.80;;;;;;;19.54;93.94;99936.34;10459825;28;20037;-73
2021/09/10 19:30:31;;;;;;;11.45;10.65;;;;;;;19.51;93.90;99946.38;10460303;28;20482;-73
2021/09/10 19:35:34;;;;;;;13.10;12.20;;;;;;;19.58;93.90;99948.50;10460987;28;20071;-72
2021/09/10 19:40:36;;;;;;;13.23;12.32;;;;;;;19.47;94.72;99951.06;10459977;28;20094;-73
2021/09/10 19:45:38;;;;;;;15.90;14.50;;;;;;;19.40;94.97;99947.13;10458687;28;20033;-72
2021/09/10 19:50:40;;;;;;;14.45;13.55;;;;;;;19.22;95.96;99943.94;10458770;28;20045;-73
2021/09/10 19:55:42;;;;;;;14.95;14.02;;;;;;;19.18;95.68;99950.44;10458537;28;20033;-73
2021/09/10 20:00:44;;;;;;;14.57;13.48;;;;;;;19.14;95.33;99956.94;10459942;28;20053;-74
2021/09/10 20:05:46;;;;;;;15.43;14.43;;;;;;;19.20;94.65;99948.50;10465298;28;20097;-74
2021/09/10 20:10:47;;;;;;;16.95;15.85;;;;;;;19.09;95.17;99949.25;10465291;28;20490;-73
2021/09/10 20:15:49;;;;;;;17.67;16.38;;;;;;;19.24;94.19;99959.81;10467161;28;20052;-73
2021/09/10 20:20:50;;;;;;;18.23;16.83;;;;;;;19.35;93.42;99959.94;10465907;28;20041;-73
2021/09/10 20:25:52;;;;;;;17.13;15.95;;;;;;;19.10;93.86;99955.44;10467269;28;20037;-73
2021/09/10 20:30:54;;;;;;;18.45;17.00;;;;;;;18.95;94.23;99964.44;10467668;28;20053;-72
2021/09/10 20:35:56;;;;;;;19.98;18.35;;;;;;;18.94;92.58;99960.09;10469762;28;20040;-73
2021/09/10 20:40:58;;;;;;;19.55;17.65;;;;;;;18.86;90.87;99955.28;10447610;28;20048;-73
2021/09/10 20:45:59;;;;;;;14.55;13.60;;;;;;;18.72;89.21;99966.00;10464101;28;20578;-73
2021/09/10 20:51:01;;;;;;;12.65;11.80;;;;;;;18.70;88.30;99954.59;10463485;28;20071;-73
2021/09/10 20:56:03;;;;;;;14.23;13.20;;;;;;;18.62;88.88;99957.75;10463377;28;20469;-73
2021/09/10 21:01:05;;;;;;;15.55;14.35;;;;;;;18.53;89.66;99955.69;10463522;28;20049;-72
2021/09/10 21:06:08;;;;;;;15.88;14.65;;;;;;;18.49;90.34;99959.50;10462198;28;20045;-72
2021/09/10 21:11:09;;;;;;;16.83;15.73;;;;;;;18.42;91.23;99959.06;10463102;28;20045;-73
2021/09/10 21:16:11;;;;;;;20.95;19.25;;;;;;;18.35;91.71;99958.59;10463165;28;20041;-73
2021/09/10 21:21:12;;;;;;;22.20;20.67;;;;;;;18.24;92.52;99962.91;10460860;28;20136;-73
2021/09/10 21:26:14;;;;;;;19.02;17.83;;;;;;;18.22;92.45;99965.66;10461316;28;20041;-73
2021/09/10 21:31:16;;;;;;;19.00;17.75;;;;;;;18.27;92.37;99962.72;10460191;28;20526;-73
2021/09/10 21:36:18;;;;;;;17.27;15.98;;;;;;;18.40;92.91;99955.63;10460033;28;20463;-72
2021/09/10 21:41:20;;;;;;;18.55;17.05;;;;;;;18.11;93.93;99958.38;10460364;28;20052;-72
2021/09/10 21:46:22;;;;;;;18.70;17.20;;;;;;;18.20;92.90;99962.25;10460114;28;20037;-72
2021/09/10 21:51:23;;;;;;;17.90;16.70;;;;;;;18.40;92.74;99963.63;10460006;28;20048;-73
2021/09/10 21:56:25;;;;;;;18.58;16.88;;;;;;;18.14;93.22;99976.78;10463439;28;20033;-74
2021/09/10 22:01:27;;;;;;;15.52;14.27;;;;;;;18.17;92.63;99966.91;10459227;28;20103;-73
2021/09/10 22:06:30;;;;;;;16.25;15.13;;;;;;;18.26;91.43;99961.84;10458650;28;20037;-73
2021/09/10 22:11:31;;;;;;;16.08;14.73;;;;;;;18.02;92.20;99980.25;10458696;28;20046;-73
2021/09/10 22:16:33;;;;;;;16.88;15.95;;;;;;;17.77;94.40;99969.44;10459231;28;20051;-73
2021/09/10 22:21:35;;;;;;;17.67;16.48;;;;;;;17.71;95.48;99969.78;10456760;28;20055;-73
2021/09/10 22:26:36;;;;;;;15.80;14.80;;;;;;;17.70;95.20;99974.25;10458181;28;20041;-72
2021/09/10 22:31:38;;;;;;;18.60;17.27;;;;;;;17.68;94.89;99973.50;10457665;28;20045;-72
2021/09/10 22:36:39;;;;;;;16.70;15.57;;;;;;;17.65;95.24;99977.19;10457867;28;20098;-72
2021/09/10 22:41:41;;;;;;;18.10;15.65;;;;;;;17.98;92.73;99973.41;10456380;28;20044;-72
2021/09/10 22:46:42;;;;;;;15.27;14.38;;;;;;;17.85;93.57;99973.34;10458303;28;20075;-73
2021/09/10 22:51:44;;;;;;;15.88;14.77;;;;;;;18.10;92.10;99985.06;10457805;28;20045;-72
2021/09/10 22:56:45;;;;;;;17.20;16.20;;;;;;;17.86;93.38;99988.34;10458077;28;20045;-72
2021/09/10 23:01:49;;;;;;;15.50;14.48;;;;;;;17.81;93.46;99989.56;10455780;28;20510;-72
2021/09/10 23:06:51;;;;;;;15.90;14.88;;;;;;;17.77;94.24;99985.41;10455797;28;20041;-73
2021/09/10 23:11:53;;;;;;;16.83;15.82;;;;;;;18.00;93.58;99989.28;10457310;28;20071;-73
2021/09/10 23:16:55;;;;;;;14.70;13.90;;;;;;;17.85;93.98;99988.44;10440688;28;20414;-73
2021/09/10 23:21:56;;;;;;;15.68;14.55;;;;;;;17.74;94.36;99986.44;10457376;28;20041;-74